Impacts TAF Board
For situational awareness. Not to be used for flight planning purposes.
IDs:

KSEA - Seattle-Tacoma Intl, WA, US

Issued at 1400 UTC 01 Mar 2021
Updated at 1700 UTC 01 Mar 2021
Potential Impact None Slight Moderate High
Time1653Z 01/17Z 01/18Z 01/19Z 01/20Z 01/21Z 01/22Z 01/23Z 02/00Z 02/01Z 02/02Z 02/03Z 02/04Z 02/05Z>>
Type OBS PRVL PRVL PRVL PRVL PRVL PRVL PRVL PRVL PRVL PRVL PRVL PRVL PRVL
VIS 10 >6 >6 >6 >6 >6 >6 >6 >6 >6 >6 >6 >6 >6
CIG 250 100 100 100 100 200 200 200 200 200 200 200 200 25
Cover BKN OVC OVC OVC OVC BKN BKN BKN BKN BKN BKN BKN BKN OVC
FltCat VFR VFR VFR VFR VFR VFR VFR VFR VFR VFR VFR VFR VFR MVFR
WX -- -- -- -- -- -- -- -- -- -- -- -- -- VCSH
WDir 190 160 160 160 160 220 220 220 220 220 220 220 220 200
WSpd 3 5 5 5 5 6 6 6 6 6 6 6 6 5
WGst -- -- -- -- -- -- -- -- -- -- -- -- -- --
Raw TAF
KSEA 011400Z 0114/0218 12006KT P6SM SCT060 BKN200
  FM011500 16005KT P6SM BKN100 OVC200
  FM012100 22006KT P6SM SCT120 BKN200
  FM020500 20005KT P6SM VCSH BKN025 OVC050
  FM021300 23005KT P6SM SCT020 OVC025


Raw METAR
KSEA 011653Z 19003KT 10SM FEW140 BKN250 07/03 A3006 RMK AO2 SLP186 T00670028
KSEA 011553Z 22003KT 10SM FEW120 BKN170 BKN220 06/03 A3005 RMK AO2 SLP184 T00560028
KSEA 011453Z 13006KT 10SM FEW120 OVC170 06/02 A3005 RMK AO2 SLP184 T00560022 57008
KSEA 011353Z 12006KT 10SM OVC160 05/03 A3005 RMK AO2 SLP186 T00500028

METAR Board
Radar Display
Forecast Discussion
For situational awareness. Not to be used for flight planning purposes.